Terminal Aerodrome Forecast
Issued by NWS

Home | Current Version | Previous Version | Text Only | Print | Product List | Glossary Off
Versions: 1 2 3 4 5 6 7 8 9 10 11 12

991
FTUS44 KTSA 250520
TAFRVS
TAF
KRVS 250520Z 2506/2606 VRB03KT P6SM FEW070 SCT120
     FM251500 17007KT P6SM SCT250
     FM251700 16008KT P6SM SCT050
     FM260100 13005KT P6SM SCT040 BKN150=

USA.gov is the U.S. government's official web portal to all federal, state and local government web resources and services.